Aeroporto :
LOGIN :

Iscrizione | Disclaimer

   EN    FR    IT 

 










Sommario :    VFR   VFR Marginale   IFR   IFR Intensivo   IFR Molto Intensivo
Visibilità : 
Base nubi : 
>= 8 km
>= 3000ft
5 / 8 km
1000 / 3000 ft
1500m / 5 km
500 / 1000 ft
800 / 1500m
200 / 500 ft
< 800m
< 200 ft
Simboli :   Temporali  Nebbia  Neve Forte  Precipitazioni Forti  Vento > 20 kt
SIGMETs :   Varie  Temporali  Ghiacco  Turbolenza  Onda orograficha  Ceneri Vulcaniche






- Altitudine del aeroporto : 2077 ft
- Codice IATA : FMM


EDJA - Memmingen

ULTIMO METAR :
  • 200920Z 06009KT 9999 OVC007 M01/M02 Q1042

METARs OBSOLETI :
  • 200850Z 06009KT 030V090 7000 OVC005 M01/M02 Q1042
  • 200820Z 07006KT 4700 BR OVC003 M02/M02 Q1042
  • 200750Z 07008KT 5000 BR OVC002 M02/M02 Q1042
  • 200720Z 08006KT 3500 BR OVC002 M02/M02 Q1042
  • 200650Z 07007KT 4800 BR OVC002 M02/M02 Q1042

TAF TAF EDJA
Valido dal 20 a 09 ore il 20 a 18 ore UTC


200800Z 2009/2018 06010KT 6000 SCT004 BKN012
TEMPO 2009/2011 4000 BR OVC002
BECMG 2011/2013 FEW012 BKN020



MetMap, La meteo Aeronautica in un colpo d'occhio ! - Copyright ORBIFLY Dicembre 2007 - Disclaimer

ORBIFLY MET'MAP TEAM :

Programmazione e sviluppo : Alexandra Zaïnal
Concezione : Baudouin d'Aumeries
Aiuto per la programmazione : Marc-Olivier Méhu
Supporto tecnico e logistico : Manuel Goepfert
Aiuto per la traduzione : Arnaldo La Scala

Contatto : metmap@orbifly.com




FONTI E CREDITI :

   NOAA